Time;durP1;ratioP1;P1;durP2;ratioP2;P2;SDS_P1;SDS_P2;PMS_P1;PMS_P2;Temp;Humidity;BMP_temperature;BMP_pressure;BME280_temperature;BME280_humidity;BME280_pressure;Samples;Min_cycle;Max_cycle;Signal;HPM_P1;HPM_P2
2023/03/28 00:01:18;;;;;;;;;;;;;;;9.99;65.76;98252.09;5093167;28;20008;-43
2023/03/28 00:03:43;;;;;;;;;;;;;;;9.91;66.29;98263.09;5093087;28;19916;-43
2023/03/28 00:06:10;;;;;;;;;;;;;;;9.87;66.58;98254.78;5092735;28;19916;-43
2023/03/28 00:08:38;;;;;;;;;;;;;;;9.72;67.32;98265.09;5093213;28;20240;-43
2023/03/28 00:11:03;;;;;;;;;;;;;;;9.77;66.92;98267.88;5093130;28;19923;-40
2023/03/28 00:13:28;;;;;;;;;;;;;;;9.83;67.61;98274.91;5092871;28;19912;-43
2023/03/28 00:15:54;;;;;;;;;;;;;;;9.96;66.80;98276.50;5092906;28;19919;-43
2023/03/28 00:18:19;;;;;;;;;;;;;;;9.95;66.91;98269.53;5092868;28;20010;-43
2023/03/28 00:20:44;;;;;;;;;;;;;;;10.08;65.29;98276.44;5093124;28;20376;-43
2023/03/28 00:23:10;;;;;;;;;;;;;;;9.82;67.24;98283.91;5092498;28;20344;-41
2023/03/28 00:25:38;;;;;;;;;;;;;;;9.76;67.49;98280.31;5092620;28;19982;-42
2023/03/28 00:28:04;;;;;;;;;;;;;;;9.57;68.01;98278.84;5092391;28;19919;-41
2023/03/28 00:30:29;;;;;;;;;;;;;;;9.48;67.87;98280.25;5092634;28;20002;-42
2023/03/28 00:32:56;;;;;;;;;;;;;;;9.56;66.96;98269.28;5092510;28;19913;-41
2023/03/28 00:35:21;;;;;;;;;;;;;;;9.62;67.70;98286.94;5092393;28;19912;-41
2023/03/28 00:37:49;;;;;;;;;;;;;;;9.50;67.01;98283.47;5092117;28;20007;-42
2023/03/28 00:40:15;;;;;;;;;;;;;;;9.38;68.05;98283.47;5092167;28;20354;-42
2023/03/28 00:42:41;;;;;;;;;;;;;;;9.48;67.07;98288.22;5091977;28;19952;-42
2023/03/28 00:45:08;;;;;;;;;;;;;;;9.48;66.72;98288.22;5092286;28;19916;-42
2023/03/28 00:47:36;;;;;;;;;;;;;;;9.37;67.44;98297.81;5092097;28;19919;-42
2023/03/28 00:50:06;;;;;;;;;;;;;;;9.37;66.65;98303.13;5092219;28;19912;-42
2023/03/28 00:52:38;;;;;;;;;;;;;;;9.42;66.45;98307.72;5092214;28;20003;-42
2023/03/28 00:55:06;;;;;;;;;;;;;;;9.38;65.82;98305.53;5091849;28;19985;-42
2023/03/28 00:57:32;;;;;;;;;;;;;;;9.39;65.92;98328.38;5092002;28;20030;-42
2023/03/28 00:59:57;;;;;;;;;;;;;;;9.10;65.74;98308.03;5092079;28;19959;-42
2023/03/28 01:02:23;;;;;;;;;;;;;;;8.92;66.30;98319.56;5091766;28;19919;-42
2023/03/28 01:04:58;;;;;;;;;;;;;;;8.97;66.26;98331.09;5091912;28;19916;-42
2023/03/28 01:07:24;;;;;;;;;;;;;;;8.73;66.17;98324.91;5091934;28;19912;-42
2023/03/28 01:09:50;;;;;;;;;;;;;;;8.70;65.66;98341.28;5091804;28;20347;-43
2023/03/28 01:12:16;;;;;;;;;;;;;;;8.46;65.31;98327.13;5091904;28;20364;-43
2023/03/28 01:14:42;;;;;;;;;;;;;;;8.55;64.68;98347.00;5091723;28;19912;-43
2023/03/28 01:17:09;;;;;;;;;;;;;;;8.41;63.82;98343.72;5091916;28;19973;-43
2023/03/28 01:19:43;;;;;;;;;;;;;;;8.18;63.89;98364.75;5091889;28;19912;-42
2023/03/28 01:22:08;;;;;;;;;;;;;;;8.25;63.80;98367.34;5091770;28;19919;-42
2023/03/28 01:24:49;;;;;;;;;;;;;;;8.06;64.29;98366.53;5091227;28;19920;-42
2023/03/28 01:27:36;;;;;;;;;;;;;;;7.87;64.47;98366.50;5091621;28;20399;-42
2023/03/28 01:30:10;;;;;;;;;;;;;;;7.70;64.76;98355.66;5091878;28;19969;-42
2023/03/28 01:32:38;;;;;;;;;;;;;;;7.75;63.99;98360.28;5091854;28;19913;-42
2023/03/28 01:35:03;;;;;;;;;;;;;;;7.73;64.11;98368.47;5091566;28;19913;-42
2023/03/28 01:37:40;;;;;;;;;;;;;;;7.60;63.26;98371.25;5091646;28;19969;-42
2023/03/28 01:40:17;;;;;;;;;;;;;;;7.60;63.09;98371.25;5091685;28;19919;-42
2023/03/28 01:42:51;;;;;;;;;;;;;;;7.28;63.84;98384.53;5090652;28;20340;-42
2023/03/28 01:45:17;;;;;;;;;;;;;;;7.18;63.96;98370.97;5071551;28;20069;-42
2023/03/28 01:48:03;;;;;;;;;;;;;;;7.52;62.78;98371.50;5071647;28;20312;-42
2023/03/28 01:50:37;;;;;;;;;;;;;;;6.97;62.93;98364.22;5071090;28;19916;-42
2023/03/28 01:53:17;;;;;;;;;;;;;;;6.78;63.83;98387.91;5073403;28;19916;-42
2023/03/28 01:55:42;;;;;;;;;;;;;;;6.84;63.24;98391.53;5075528;28;19912;-42
2023/03/28 01:58:20;;;;;;;;;;;;;;;6.79;62.90;98405.38;5075426;28;19920;-42
2023/03/28 02:00:49;;;;;;;;;;;;;;;7.07;61.88;98406.06;5075239;28;19912;-42
2023/03/28 02:03:17;;;;;;;;;;;;;;;7.03;61.57;98432.94;5075229;28;19920;-42
2023/03/28 02:05:44;;;;;;;;;;;;;;;6.88;61.45;98424.47;5075263;28;19920;-42
2023/03/28 02:08:10;;;;;;;;;;;;;;;6.89;61.14;98423.44;5076872;28;19916;-42
2023/03/28 02:10:38;;;;;;;;;;;;;;;7.05;60.31;98430.06;5095263;28;19912;-42
2023/03/28 02:13:08;;;;;;;;;;;;;;;6.70;60.18;98445.50;5095178;28;19992;-42
2023/03/28 02:15:33;;;;;;;;;;;;;;;6.48;59.82;98452.91;5095293;28;19911;-42
2023/03/28 02:18:01;;;;;;;;;;;;;;;6.70;59.51;98456.06;5095547;28;19912;-43
2023/03/28 02:20:28;;;;;;;;;;;;;;;6.50;59.51;98456.16;5095335;28;19912;-42
2023/03/28 02:23:02;;;;;;;;;;;;;;;6.65;58.77;98468.09;5095312;28;19971;-43
2023/03/28 02:25:29;;;;;;;;;;;;;;;6.49;58.69;98454.53;5095307;28;19947;-42
2023/03/28 02:27:56;;;;;;;;;;;;;;;6.30;59.71;98470.22;5095452;28;19912;-42
2023/03/28 02:30:22;;;;;;;;;;;;;;;6.29;59.62;98476.53;5095436;28;19918;-43
2023/03/28 02:32:49;;;;;;;;;;;;;;;6.36;59.23;98473.84;5100196;28;19912;-43
2023/03/28 02:35:16;;;;;;;;;;;;;;;6.16;59.57;98479.19;5095173;28;19912;-42
2023/03/28 02:37:48;;;;;;;;;;;;;;;6.13;59.65;98464.56;5095039;28;19918;-43
2023/03/28 02:40:26;;;;;;;;;;;;;;;6.20;59.21;98488.31;5094931;28;19951;-43
2023/03/28 02:43:12;;;;;;;;;;;;;;;6.20;59.87;98490.97;5094908;28;19912;-43
2023/03/28 02:45:40;;;;;;;;;;;;;;;6.05;59.31;98473.53;5094108;28;20070;-42
2023/03/28 02:48:14;;;;;;;;;;;;;;;5.91;60.02;98479.00;5095254;28;19915;-43
2023/03/28 02:50:47;;;;;;;;;;;;;;;5.88;60.09;98481.03;5094764;28;19919;-42
2023/03/28 02:53:21;;;;;;;;;;;;;;;5.89;59.84;98489.75;5094334;28;19961;-43
2023/03/28 02:56:00;;;;;;;;;;;;;;;5.96;60.15;98503.81;5094685;28;19935;-42
2023/03/28 02:58:33;;;;;;;;;;;;;;;5.83;60.65;98506.41;5095051;28;19919;-42
2023/03/28 03:01:01;;;;;;;;;;;;;;;5.78;60.95;98511.47;5094600;28;20007;-42
2023/03/28 03:03:26;;;;;;;;;;;;;;;5.62;61.10;98521.41;5094009;28;19995;-42
2023/03/28 03:05:51;;;;;;;;;;;;;;;5.72;60.51;98518.38;5093566;28;20006;-41
2023/03/28 03:08:17;;;;;;;;;;;;;;;5.58;61.43;98517.56;5094662;28;19916;-42
2023/03/28 03:10:42;;;;;;;;;;;;;;;5.44;61.01;98524.63;5094406;28;19912;-42
2023/03/28 03:13:07;;;;;;;;;;;;;;;5.42;60.43;98529.28;5094405;28;20015;-42
2023/03/28 03:15:34;;;;;;;;;;;;;;;5.37;60.72;98534.38;5094386;28;19919;-42
2023/03/28 03:18:00;;;;;;;;;;;;;;;5.27;61.01;98534.75;5094395;28;19913;-41
2023/03/28 03:20:26;;;;;;;;;;;;;;;5.23;61.05;98530.84;5093971;28;19935;-42
2023/03/28 03:22:55;;;;;;;;;;;;;;;5.53;60.68;98543.72;5092361;28;20392;-42
2023/03/28 03:25:21;;;;;;;;;;;;;;;5.31;60.67;98539.59;5092539;28;19924;-41
2023/03/28 03:27:46;;;;;;;;;;;;;;;5.18;60.82;98529.81;5093136;28;20289;-41
2023/03/28 03:30:11;;;;;;;;;;;;;;;5.34;60.46;98542.66;5094001;28;19923;-41
2023/03/28 03:32:38;;;;;;;;;;;;;;;5.20;60.41;98565.56;5093608;28;20436;-42
2023/03/28 03:35:03;;;;;;;;;;;;;;;5.17;61.41;98559.84;5093839;28;19912;-42
2023/03/28 03:37:29;;;;;;;;;;;;;;;5.14;60.46;98541.78;5093572;28;19919;-42
2023/03/28 03:39:54;;;;;;;;;;;;;;;5.36;59.99;98561.75;5093630;28;19912;-42
2023/03/28 03:42:19;;;;;;;;;;;;;;;5.22;59.56;98552.19;5092367;28;19912;-42
2023/03/28 03:44:45;;;;;;;;;;;;;;;4.98;59.67;98569.31;5091555;28;19916;-42
2023/03/28 03:47:10;;;;;;;;;;;;;;;4.89;60.25;98558.09;5092658;28;19961;-41
2023/03/28 03:49:35;;;;;;;;;;;;;;;4.78;60.76;98564.75;5092808;28;19919;-41
2023/03/28 03:52:01;;;;;;;;;;;;;;;4.77;60.45;98575.50;5092654;28;19939;-42
2023/03/28 03:54:26;;;;;;;;;;;;;;;4.76;60.30;98571.22;5092773;28;19912;-42
2023/03/28 03:56:51;;;;;;;;;;;;;;;4.73;60.09;98569.00;5093052;28;19943;-42
2023/03/28 03:59:17;;;;;;;;;;;;;;;4.70;60.41;98576.28;5093663;28;19919;-42
2023/03/28 04:01:42;;;;;;;;;;;;;;;4.82;59.87;98576.53;5093241;28;19991;-42
2023/03/28 04:04:08;;;;;;;;;;;;;;;4.73;60.21;98593.50;5093337;28;19920;-42
2023/03/28 04:06:34;;;;;;;;;;;;;;;4.67;59.83;98568.75;5093755;28;19984;-42
2023/03/28 04:08:59;;;;;;;;;;;;;;;5.19;58.77;98586.84;5093347;28;20287;-42
2023/03/28 04:11:24;;;;;;;;;;;;;;;4.89;58.57;98595.00;5093172;28;20313;-42
2023/03/28 04:13:50;;;;;;;;;;;;;;;4.85;58.70;98588.50;5093231;28;19919;-41
2023/03/28 04:16:15;;;;;;;;;;;;;;;5.19;63.78;98595.56;5092916;28;19912;-41
2023/03/28 04:18:49;;;;;;;;;;;;;;;5.12;58.04;98621.09;5093212;28;19919;-42
2023/03/28 04:21:15;;;;;;;;;;;;;;;4.98;57.37;98628.13;5093198;28;19912;-41
2023/03/28 04:23:47;;;;;;;;;;;;;;;4.89;57.16;98626.66;5092675;28;19920;-42
2023/03/28 04:26:14;;;;;;;;;;;;;;;4.87;57.15;98641.84;5092897;28;20372;-42
2023/03/28 04:28:40;;;;;;;;;;;;;;;4.85;56.97;98647.31;5093145;28;19919;-42
2023/03/28 04:31:06;;;;;;;;;;;;;;;4.87;56.58;98660.31;5092829;28;20009;-42
2023/03/28 04:33:32;;;;;;;;;;;;;;;4.89;56.41;98651.22;5093017;28;20455;-42
2023/03/28 04:36:01;;;;;;;;;;;;;;;4.84;56.74;98671.25;5092797;28;19912;-43
2023/03/28 04:38:27;;;;;;;;;;;;;;;5.08;59.14;98678.72;5092736;28;19923;-43
2023/03/28 04:40:56;;;;;;;;;;;;;;;5.28;56.47;98684.09;5092970;28;19952;-43
2023/03/28 04:43:22;;;;;;;;;;;;;;;6.00;64.41;98681.16;5092496;28;20396;-43
2023/03/28 04:45:47;;;;;;;;;;;;;;;5.26;55.23;98696.66;5092519;28;20007;-43
2023/03/28 04:48:13;;;;;;;;;;;;;;;5.17;54.77;98689.09;5092397;28;19952;-40
2023/03/28 04:50:38;;;;;;;;;;;;;;;5.11;54.86;98680.13;5092202;28;19912;-40
2023/03/28 04:53:03;;;;;;;;;;;;;;;5.19;54.68;98687.88;5091981;28;19923;-41
2023/03/28 04:55:30;;;;;;;;;;;;;;;5.38;54.30;98691.63;5092380;28;19935;-42
2023/03/28 04:57:56;;;;;;;;;;;;;;;5.25;54.34;98695.03;5090985;28;19920;-42
2023/03/28 05:00:22;;;;;;;;;;;;;;;5.37;53.62;98705.03;5092338;28;20336;-41
2023/03/28 05:02:47;;;;;;;;;;;;;;;5.32;53.81;98702.97;5092575;28;19912;-41
2023/03/28 05:05:12;;;;;;;;;;;;;;;5.44;53.14;98733.06;5091947;28;20367;-42
2023/03/28 05:07:38;;;;;;;;;;;;;;;5.64;53.02;98700.69;5092321;28;19923;-41
2023/03/28 05:10:03;;;;;;;;;;;;;;;5.72;52.28;98707.63;5091870;28;19919;-43
2023/03/28 05:12:29;;;;;;;;;;;;;;;5.80;52.05;98707.47;5089900;28;19970;-41
2023/03/28 05:14:54;;;;;;;;;;;;;;;6.00;50.82;98697.00;5092019;28;19920;-42
2023/03/28 05:17:19;;;;;;;;;;;;;;;6.48;50.82;98719.84;5092115;28;19908;-44
2023/03/28 05:19:46;;;;;;;;;;;;;;;6.39;49.97;98743.00;5091632;28;20318;-41
2023/03/28 05:22:11;;;;;;;;;;;;;;;6.27;50.60;98734.84;5091562;28;19998;-42
2023/03/28 05:24:36;;;;;;;;;;;;;;;5.98;50.94;98738.66;5092319;28;20308;-43
2023/03/28 05:27:02;;;;;;;;;;;;;;;6.00;51.07;98742.72;5091613;28;19912;-43
2023/03/28 05:29:27;;;;;;;;;;;;;;;6.06;51.05;98749.03;5091751;28;20407;-43
2023/03/28 05:31:52;;;;;;;;;;;;;;;6.04;51.59;98764.25;5091778;28;19964;-42
2023/03/28 05:34:17;;;;;;;;;;;;;;;5.92;51.07;98769.28;5090721;28;19923;-42
2023/03/28 05:36:43;;;;;;;;;;;;;;;5.71;51.68;98750.88;5090797;28;19920;-42
2023/03/28 05:39:08;;;;;;;;;;;;;;;5.57;51.84;98771.13;5090943;28;19912;-42
2023/03/28 05:41:33;;;;;;;;;;;;;;;5.74;51.14;98782.97;5091161;28;19931;-42
2023/03/28 05:43:59;;;;;;;;;;;;;;;5.59;51.28;98783.09;5090895;28;19912;-44
2023/03/28 05:46:24;;;;;;;;;;;;;;;5.57;50.85;98797.50;5090325;28;19916;-43
2023/03/28 05:48:50;;;;;;;;;;;;;;;5.88;49.45;98791.78;5091013;28;20383;-43
2023/03/28 05:51:15;;;;;;;;;;;;;;;6.49;49.40;98792.81;5090906;28;20261;-42
2023/03/28 05:53:41;;;;;;;;;;;;;;;6.35;48.67;98797.28;5091046;28;19912;-42
2023/03/28 05:56:06;;;;;;;;;;;;;;;6.21;48.64;98814.91;5090679;28;19913;-42
2023/03/28 05:58:32;;;;;;;;;;;;;;;6.18;48.83;98810.81;5090959;28;19966;-42
2023/03/28 06:00:59;;;;;;;;;;;;;;;6.30;48.99;98840.13;5090956;28;19915;-42
2023/03/28 06:03:24;;;;;;;;;;;;;;;6.46;48.47;98794.06;5090984;28;20330;-41
2023/03/28 06:05:50;;;;;;;;;;;;;;;6.62;48.23;98819.28;5090670;28;19920;-42
2023/03/28 06:08:15;;;;;;;;;;;;;;;6.64;48.85;98799.59;5091365;28;20495;-43
2023/03/28 06:10:43;;;;;;;;;;;;;;;6.81;47.73;98815.06;5091029;28;19916;-43
2023/03/28 06:13:08;;;;;;;;;;;;;;;6.75;47.43;98774.38;5091493;28;19965;-43
2023/03/28 06:15:33;;;;;;;;;;;;;;;6.63;48.56;98786.56;5091417;28;20338;-42
2023/03/28 06:17:59;;;;;;;;;;;;;;;6.85;47.94;98798.59;5090289;28;20348;-43
2023/03/28 06:20:24;;;;;;;;;;;;;;;6.78;48.16;98784.56;5091001;28;19912;-44
2023/03/28 06:22:49;;;;;;;;;;;;;;;6.63;48.42;98783.94;5091018;28;19993;-44
2023/03/28 06:25:15;;;;;;;;;;;;;;;6.57;49.32;98787.38;5089952;28;19927;-43
2023/03/28 06:27:40;;;;;;;;;;;;;;;6.75;48.92;98811.38;5090405;28;19912;-42
2023/03/28 06:30:06;;;;;;;;;;;;;;;6.93;48.94;98786.16;5090534;28;19912;-44
2023/03/28 06:32:31;;;;;;;;;;;;;;;6.83;48.23;98802.44;5089703;28;19913;-43
2023/03/28 06:34:56;;;;;;;;;;;;;;;6.89;48.11;98793.69;5090585;28;20237;-44
2023/03/28 06:37:21;;;;;;;;;;;;;;;7.08;46.65;98807.13;5090702;28;19977;-41
2023/03/28 06:39:49;;;;;;;;;;;;;;;7.47;46.74;98819.53;5094122;28;19912;-42
2023/03/28 06:42:15;;;;;;;;;;;;;;;7.74;43.01;98832.75;5094546;28;19912;-44
2023/03/28 06:44:40;;;;;;;;;;;;;;;7.74;42.47;98846.78;5094435;28;20407;-43
2023/03/28 06:47:06;;;;;;;;;;;;;;;7.88;42.24;98836.16;5093784;28;19912;-42
2023/03/28 06:49:31;;;;;;;;;;;;;;;8.06;41.86;98833.66;5094139;28;19913;-42
2023/03/28 06:51:56;;;;;;;;;;;;;;;8.33;41.78;98829.06;5094054;28;19920;-42
2023/03/28 06:54:21;;;;;;;;;;;;;;;8.08;41.16;98852.00;5093761;28;19919;-43
2023/03/28 06:56:47;;;;;;;;;;;;;;;8.07;41.38;98876.88;5094108;28;19934;-43
2023/03/28 06:59:12;;;;;;;;;;;;;;;7.85;41.90;98889.56;5094391;28;19973;-42
2023/03/28 07:01:37;;;;;;;;;;;;;;;7.96;41.65;98850.00;5094214;28;19923;-42
2023/03/28 07:04:02;;;;;;;;;;;;;;;8.42;41.32;98861.50;5094174;28;20002;-44
2023/03/28 07:06:28;;;;;;;;;;;;;;;8.90;40.85;98852.25;5094150;28;19916;-44
2023/03/28 07:08:55;;;;;;;;;;;;;;;9.24;39.24;98866.91;5094160;28;19967;-40
2023/03/28 07:11:20;;;;;;;;;;;;;;;9.26;39.94;98840.97;5094074;28;20379;-41
2023/03/28 07:13:45;;;;;;;;;;;;;;;9.29;39.79;98831.75;5093995;28;19912;-42
2023/03/28 07:16:12;;;;;;;;;;;;;;;9.20;40.38;98861.22;5094058;28;19920;-42
2023/03/28 07:18:38;;;;;;;;;;;;;;;10.12;39.62;98871.19;5093761;28;19947;-42
2023/03/28 07:21:04;;;;;;;;;;;;;;;9.96;39.45;98872.59;5093862;28;19919;-43
2023/03/28 07:23:30;;;;;;;;;;;;;;;9.64;39.19;98882.53;5093386;28;20292;-43
2023/03/28 07:25:55;;;;;;;;;;;;;;;9.31;40.00;98867.69;5093569;28;19927;-42
2023/03/28 07:28:22;;;;;;;;;;;;;;;8.89;40.08;98877.16;5093735;28;19919;-43
2023/03/28 07:30:48;;;;;;;;;;;;;;;8.33;40.56;98855.56;5093734;28;20015;-41
2023/03/28 07:33:13;;;;;;;;;;;;;;;8.52;40.71;98867.16;5093585;28;20003;-43
2023/03/28 07:35:39;;;;;;;;;;;;;;;8.89;40.20;98877.16;5093809;28;19915;-42
2023/03/28 07:38:04;;;;;;;;;;;;;;;9.07;39.82;98863.16;5093681;28;20027;-43
2023/03/28 07:40:30;;;;;;;;;;;;;;;8.90;40.28;98861.03;5093357;28;19919;-43
2023/03/28 07:42:55;;;;;;;;;;;;;;;9.44;39.40;98881.88;5093342;28;19912;-43
2023/03/28 07:45:20;;;;;;;;;;;;;;;9.07;39.56;98865.81;5092592;28;19923;-42
2023/03/28 07:47:45;;;;;;;;;;;;;;;9.06;39.81;98888.06;5093503;28;19912;-42
2023/03/28 07:50:11;;;;;;;;;;;;;;;9.51;38.53;98872.03;5093137;28;19952;-41
2023/03/28 07:52:36;;;;;;;;;;;;;;;9.57;37.81;98884.41;5093818;28;19912;-42
2023/03/28 07:55:01;;;;;;;;;;;;;;;9.91;38.29;98863.66;5093473;28;20372;-43
2023/03/28 07:57:27;;;;;;;;;;;;;;;9.85;37.34;98872.53;5093326;28;20107;-42
2023/03/28 07:59:53;;;;;;;;;;;;;;;9.67;37.96;98866.16;5093452;28;19912;-45
2023/03/28 08:02:18;;;;;;;;;;;;;;;9.77;38.37;98903.66;5093399;28;19912;-43
2023/03/28 08:04:43;;;;;;;;;;;;;;;9.30;38.16;98878.53;5093034;28;20398;-44
2023/03/28 08:07:09;;;;;;;;;;;;;;;9.52;37.43;98892.22;5092534;28;20387;-43
2023/03/28 08:09:35;;;;;;;;;;;;;;;9.39;37.38;98869.25;5092978;28;20357;-43
2023/03/28 08:12:00;;;;;;;;;;;;;;;9.29;38.23;98884.84;5092814;28;19912;-45
2023/03/28 08:14:26;;;;;;;;;;;;;;;9.51;37.50;98894.06;5092876;28;19913;-43
2023/03/28 08:16:51;;;;;;;;;;;;;;;10.15;38.14;98920.47;5092722;28;20289;-43
2023/03/28 08:19:16;;;;;;;;;;;;;;;9.65;38.27;98908.03;5093148;28;19919;-43
2023/03/28 08:21:42;;;;;;;;;;;;;;;9.56;38.71;98902.22;5092720;28;19912;-43
2023/03/28 08:24:09;;;;;;;;;;;;;;;9.58;37.77;98921.41;5092402;28;19955;-42
2023/03/28 08:26:35;;;;;;;;;;;;;;;9.30;38.49;98899.75;5091886;28;19978;-41
2023/03/28 08:29:01;;;;;;;;;;;;;;;9.66;37.81;98930.13;5092270;28;19912;-42
2023/03/28 08:31:27;;;;;;;;;;;;;;;9.39;37.89;98936.47;5091984;28;20006;-42
2023/03/28 08:33:53;;;;;;;;;;;;;;;9.90;37.10;98929.31;5091875;28;19912;-41
2023/03/28 08:36:20;;;;;;;;;;;;;;;9.58;36.80;98932.03;5091944;28;20414;-41
2023/03/28 08:38:46;;;;;;;;;;;;;;;9.61;37.20;98964.50;5091761;28;19912;-41
2023/03/28 08:41:30;;;;;;;;;;;;;;;9.47;37.43;98927.41;5091528;28;19958;-42
2023/03/28 08:43:58;;;;;;;;;;;;;;;9.64;37.19;98948.13;5091697;28;19919;-41
2023/03/28 08:46:24;;;;;;;;;;;;;;;8.97;38.38;98967.16;5091632;28;20043;-41
2023/03/28 08:48:51;;;;;;;;;;;;;;;8.86;38.48;98967.81;5091571;28;19912;-42
2023/03/28 08:51:16;;;;;;;;;;;;;;;8.95;37.63;98962.03;5091393;28;20386;-41
2023/03/28 08:53:42;;;;;;;;;;;;;;;9.92;36.56;98964.44;5091651;28;19916;-41
2023/03/28 08:56:08;;;;;;;;;;;;;;;9.86;35.87;98969.81;5091545;28;19927;-41
2023/03/28 08:58:57;;;;;;;;;;;;;;;9.05;36.58;98955.47;5091848;28;19912;-41
2023/03/28 09:01:31;;;;;;;;;;;;;;;9.28;36.43;98968.19;5085657;28;19999;-41
2023/03/28 09:03:57;;;;;;;;;;;;;;;9.62;36.05;98956.31;5091280;28;20003;-41
2023/03/28 09:06:26;;;;;;;;;;;;;;;9.94;36.00;98969.56;5091411;28;19916;-41
2023/03/28 09:09:03;;;;;;;;;;;;;;;10.06;34.96;98948.38;5091418;28;19919;-40
2023/03/28 09:11:28;;;;;;;;;;;;;;;10.20;35.06;98943.72;5091477;28;19912;-41
2023/03/28 09:13:53;;;;;;;;;;;;;;;10.24;35.16;98960.88;5091397;28;19919;-41
2023/03/28 09:16:25;;;;;;;;;;;;;;;10.14;35.38;98962.19;5091686;28;19916;-41
2023/03/28 09:19:09;;;;;;;;;;;;;;;10.18;35.20;98949.25;5091171;28;20367;-41
2023/03/28 09:21:44;;;;;;;;;;;;;;;10.41;34.09;98955.81;5090880;28;19919;-42
2023/03/28 09:24:15;;;;;;;;;;;;;;;10.33;34.65;98948.94;5091391;28;20383;-42
2023/03/28 09:26:46;;;;;;;;;;;;;;;10.50;34.83;98973.91;5091793;28;19943;-41
2023/03/28 09:29:23;;;;;;;;;;;;;;;10.82;33.95;98949.81;5091248;28;19955;-42
2023/03/28 09:31:50;;;;;;;;;;;;;;;10.85;33.21;98975.16;5091057;28;19959;-42
2023/03/28 09:34:26;;;;;;;;;;;;;;;10.72;34.16;98971.63;5091054;28;19913;-42
2023/03/28 09:36:53;;;;;;;;;;;;;;;10.60;33.81;98973.41;5091145;28;19951;-40
2023/03/28 09:39:31;;;;;;;;;;;;;;;11.26;32.85;98979.75;5090823;28;19919;-41
2023/03/28 09:42:15;;;;;;;;;;;;;;;10.95;33.79;98994.91;5090746;28;19924;-41
2023/03/28 09:44:48;;;;;;;;;;;;;;;10.42;34.15;98997.34;5091156;28;19973;-42
2023/03/28 09:47:14;;;;;;;;;;;;;;;10.30;34.04;98999.88;5090866;28;19912;-42
2023/03/28 09:49:39;;;;;;;;;;;;;;;10.17;34.15;99011.47;5090605;28;19999;-41
2023/03/28 09:52:16;;;;;;;;;;;;;;;10.88;33.38;99007.47;5091015;28;20418;-41
2023/03/28 09:54:42;;;;;;;;;;;;;;;10.87;33.64;99018.31;5091087;28;19962;-41
2023/03/28 09:57:07;;;;;;;;;;;;;;;10.75;33.84;99028.91;5091195;28;19912;-41
2023/03/28 09:59:33;;;;;;;;;;;;;;;10.20;33.06;99032.28;5091123;28;19913;-42
2023/03/28 10:02:01;;;;;;;;;;;;;;;10.47;34.26;99032.91;5090802;28;19915;-41
2023/03/28 10:04:26;;;;;;;;;;;;;;;10.23;32.94;99049.66;5090491;28;20014;-41
2023/03/28 10:06:53;;;;;;;;;;;;;;;9.48;34.52;99037.09;5090742;28;19995;-41
2023/03/28 10:09:23;;;;;;;;;;;;;;;9.30;34.28;99019.25;5090356;28;20427;-43
2023/03/28 10:11:58;;;;;;;;;;;;;;;9.82;34.44;99048.34;5090444;28;20351;-41
2023/03/28 10:14:27;;;;;;;;;;;;;;;9.73;34.59;99053.91;5093250;28;20438;-42
2023/03/28 10:16:52;;;;;;;;;;;;;;;10.12;33.51;99054.66;5094647;28;20307;-43
2023/03/28 10:19:21;;;;;;;;;;;;;;;10.83;32.95;99039.25;5094891;28;19995;-42
2023/03/28 10:21:46;;;;;;;;;;;;;;;10.85;33.20;99010.59;5094743;28;19919;-41
2023/03/28 10:24:15;;;;;;;;;;;;;;;10.99;32.83;99053.84;5094253;28;19924;-43
2023/03/28 10:26:40;;;;;;;;;;;;;;;10.69;32.92;99059.06;5094601;28;19928;-42
2023/03/28 10:29:09;;;;;;;;;;;;;;;10.45;32.56;99045.59;5094506;28;20435;-40
2023/03/28 10:31:36;;;;;;;;;;;;;;;10.00;33.20;99035.13;5094468;28;20376;-40
2023/03/28 10:34:01;;;;;;;;;;;;;;;10.31;33.65;99058.19;5094289;28;19916;-41
2023/03/28 10:36:30;;;;;;;;;;;;;;;10.68;33.31;99054.78;5094371;28;19912;-42
2023/03/28 10:38:55;;;;;;;;;;;;;;;10.79;33.15;99070.00;5094397;28;19969;-41
2023/03/28 10:41:28;;;;;;;;;;;;;;;10.68;33.06;99073.41;5094553;28;19920;-40
2023/03/28 10:43:54;;;;;;;;;;;;;;;10.82;33.61;99074.09;5094153;28;19912;-41
2023/03/28 10:46:29;;;;;;;;;;;;;;;11.60;32.07;99072.53;5094019;28;19973;-42
2023/03/28 10:48:57;;;;;;;;;;;;;;;11.37;31.74;99081.25;5094347;28;20379;-42
2023/03/28 10:51:24;;;;;;;;;;;;;;;11.07;31.66;99082.81;5094155;28;19912;-42
2023/03/28 10:54:00;;;;;;;;;;;;;;;10.71;31.90;99065.78;5094191;28;20006;-41
2023/03/28 10:56:37;;;;;;;;;;;;;;;10.59;32.78;99054.25;5093729;28;19934;-44
2023/03/28 10:59:20;;;;;;;;;;;;;;;10.82;31.50;99053.59;5093951;28;20296;-41
2023/03/28 11:01:52;;;;;;;;;;;;;;;10.46;31.72;99038.44;5093281;28;20423;-42
2023/03/28 11:04:28;;;;;;;;;;;;;;;10.70;31.93;99052.69;5094169;28;19912;-41
2023/03/28 11:07:13;;;;;;;;;;;;;;;11.12;31.51;99043.03;5093514;28;19966;-36
2023/03/28 11:09:45;;;;;;;;;;;;;;;10.69;31.16;99059.06;5093908;28;19947;-36
2023/03/28 11:12:20;;;;;;;;;;;;;;;10.54;30.77;99054.09;5094362;28;19912;-36
2023/03/28 11:14:51;;;;;;;;;;;;;;;10.59;31.16;99082.72;5094139;28;19918;-36
2023/03/28 11:17:40;;;;;;;;;;;;;;;11.12;30.68;99090.94;5093496;28;19912;-35
2023/03/28 11:20:17;;;;;;;;;;;;;;;10.74;31.04;99099.16;5073793;28;19912;-36
2023/03/28 11:22:45;;;;;;;;;;;;;;;10.78;31.70;99083.56;5091871;28;20408;-36
2023/03/28 11:25:17;;;;;;;;;;;;;;;10.45;31.41;99090.84;5092450;28;19950;-35
2023/03/28 11:27:57;;;;;;;;;;;;;;;10.67;31.63;99087.75;5093349;28;19947;-35
2023/03/28 11:30:30;;;;;;;;;;;;;;;10.33;31.83;99098.69;5093183;28;19912;-37
2023/03/28 11:33:03;;;;;;;;;;;;;;;10.34;32.20;99104.84;5090816;28;19912;-36
2023/03/28 11:35:29;;;;;;;;;;;;;;;10.75;31.04;99117.53;5093111;28;19919;-37
2023/03/28 11:38:03;;;;;;;;;;;;;;;10.40;31.87;99098.63;5087844;28;19912;-35
2023/03/28 11:40:41;;;;;;;;;;;;;;;11.03;31.89;99107.44;5093083;28;19942;-37
2023/03/28 11:43:09;;;;;;;;;;;;;;;11.13;30.66;99103.22;5092879;28;19912;-36
2023/03/28 11:45:45;;;;;;;;;;;;;;;11.24;30.95;99107.00;5090326;28;19916;-38
2023/03/28 11:48:18;;;;;;;;;;;;;;;11.11;30.34;99091.97;5093114;28;19912;-36
2023/03/28 11:51:06;;;;;;;;;;;;;;;10.69;31.37;99107.78;5091294;28;20395;-37
2023/03/28 11:53:46;;;;;;;;;;;;;;;10.57;30.74;99098.91;5092449;28;19926;-37
2023/03/28 11:56:11;;;;;;;;;;;;;;;10.52;30.53;99117.34;5093217;28;19920;-37
2023/03/28 11:58:38;;;;;;;;;;;;;;;10.39;31.58;99091.69;5097828;28;19919;-39
2023/03/28 12:01:19;;;;;;;;;;;;;;;10.40;31.42;99109.28;5097491;28;20291;-37
2023/03/28 12:03:45;;;;;;;;;;;;;;;10.57;30.98;99102.38;5093098;28;20327;-37
2023/03/28 12:06:21;;;;;;;;;;;;;;;10.47;31.07;99107.38;5101946;28;19934;-36
2023/03/28 12:08:55;;;;;;;;;;;;;;;10.38;32.00;99121.97;5105715;28;20007;-38
2023/03/28 12:11:47;;;;;;;;;;;;;;;10.23;31.20;99129.44;5096835;28;20334;-38
2023/03/28 12:14:31;;;;;;;;;;;;;;;10.17;31.79;99109.84;5087855;28;19916;-36
2023/03/28 12:16:57;;;;;;;;;;;;;;;10.14;31.69;99127.03;5092681;28;20287;-36
2023/03/28 12:19:31;;;;;;;;;;;;;;;10.47;31.40;99125.16;5092862;28;19955;-38
2023/03/28 12:22:01;;;;;;;;;;;;;;;9.96;32.09;99126.97;5103836;28;19951;-37
2023/03/28 12:24:35;;;;;;;;;;;;;;;10.10;31.80;99120.50;5095362;28;20004;-36
2023/03/28 12:27:19;;;;;;;;;;;;;;;10.26;31.30;99123.66;5080889;28;19916;-39
2023/03/28 12:29:50;;;;;;;;;;;;;;;10.33;31.61;99108.50;5103062;28;19912;-36
2023/03/28 12:32:15;;;;;;;;;;;;;;;9.74;32.44;99124.63;5091432;28;19918;-36
2023/03/28 12:34:46;;;;;;;;;;;;;;;10.13;31.68;99135.25;5092322;28;20285;-36
2023/03/28 12:37:23;;;;;;;;;;;;;;;10.33;31.26;99114.63;5095417;28;19931;-44
2023/03/28 12:39:52;;;;;;;;;;;;;;;9.64;32.28;99118.16;5093090;28;19920;-42
2023/03/28 12:42:19;;;;;;;;;;;;;;;9.68;32.29;99124.66;5089884;28;20256;-44
2023/03/28 12:44:49;;;;;;;;;;;;;;;9.53;32.55;99136.38;5092185;28;19916;-42
2023/03/28 12:47:14;;;;;;;;;;;;;;;9.66;32.68;99124.06;5092089;28;20423;-42
2023/03/28 12:49:51;;;;;;;;;;;;;;;10.30;31.34;99131.03;5091731;28;19999;-41
2023/03/28 12:52:27;;;;;;;;;;;;;;;9.93;32.02;99127.38;5090102;28;20003;-42
2023/03/28 12:54:57;;;;;;;;;;;;;;;10.13;30.85;99128.06;5090326;28;20326;-42
2023/03/28 12:57:43;;;;;;;;;;;;;;;10.02;31.24;99139.38;5090949;28;19912;-42
2023/03/28 13:00:30;;;;;;;;;;;;;;;9.85;31.95;99132.97;5091249;28;19916;-41
2023/03/28 13:02:56;;;;;;;;;;;;;;;9.78;32.65;99148.91;5091234;28;19912;-40